Airfield :
LOGIN :

Register | Disclaimer

   EN    FR    IT 

 










Legend :    VFR   Marginal VFR   IFR   Intensive IFR   Very Intensive IFR
Visi :
Ceiling :
>= 8 km
>= 3000ft
5 to 8 km
1000 to 3000 ft
1500m to 5 km
500 to 1000 ft
800 to 1500m
200 to 500 ft
< 800m
< 200 ft
Symbols :   Thunderstorms  Fog  Heavy snow  Heavy precipitations  Wind > 20 kt
SIGMETs :     Misc.  Thunderstorms  Icing  Turbulence  Mountain Waves  Volcanic Ashes






- Airport Elevation : 13 ft
- IATA code : OST


EBOS - Oostend bruges Int.

CURRENT METAR :
  • 181220Z 34008KT 6000 -SHRA SCT020CB 21/18 Q1010 TEMPO 3500 TSRA

EXPIRED METARs :
  • 181150Z 34006KT 310V010 7000 FEW020CB 23/19 Q1010 TEMPO 3500 TSRA
  • 181120Z 35005KT 320V020 7000 FEW020 23/19 Q1011 NOSIG
  • 181050Z 36006KT 330V030 7000 FEW020 23/19 Q1010 NOSIG
  • 181020Z 35007KT 7000 FEW018 22/18 Q1011 NOSIG
  • 180950Z 17004KT 140V200 9999 FEW015TCU BKN025 23/20 Q1011 NOSIG

TAF TAF EBOS
Valid from the 18 at 12:00 until the 19 at 18:00 UTC


181110Z 1812/1918 18014KT 9999 SCT040
PROB40
TEMPO 1812/1818 18020G35KT SHRAGS TSRA BKN007 BKN040CB
BECMG 1822/1824 SCT008 BKN012
TEMPO 1822/1901 BKN006
BECMG 1908/1910 BKN018



MET'MAP, your aeronautical weather chart ! - Copyright ORBIFLY December 2007 - Disclaimer

ORBIFLY MET'MAP TEAM :

Programming & Development : Alexandra Zaïnal
Concept & original design : Baudouin d'Aumeries
Assistance for programming : Marc-Olivier Méhu
Technical & hardware support : Manuel Goepfert

Contact : metmap@orbifly.com




SOURCES & CREDITS :

   NOAA